createdAt,value
2022-09-16T00:01:35.203Z,0.93
2022-09-16T00:06:36.678Z,1.00
2022-09-16T00:11:38.146Z,0.80
2022-09-16T00:16:40.107Z,0.98
2022-09-16T00:21:41.644Z,0.80
2022-09-16T00:26:43.603Z,0.88
2022-09-16T00:31:45.130Z,1.23
2022-09-16T00:36:46.649Z,1.10
2022-09-16T00:41:48.139Z,0.98
2022-09-16T00:46:50.759Z,0.93
2022-09-16T00:52:00.090Z,0.80
2022-09-16T00:57:03.042Z,1.15
2022-09-16T01:02:14.208Z,1.27
2022-09-16T01:07:16.489Z,0.80
2022-09-16T01:12:17.957Z,0.95
2022-09-16T01:17:50.549Z,0.82
2022-09-16T01:23:10.809Z,0.80
2022-09-16T01:28:46.407Z,0.70
2022-09-16T01:34:12.295Z,0.75
2022-09-16T01:39:48.581Z,1.00
2022-09-16T01:45:00.563Z,1.30
2022-09-16T01:50:22.931Z,1.27
2022-09-16T01:55:59.798Z,1.00
2022-09-16T02:01:10.071Z,1.20
2022-09-16T02:06:18.526Z,1.10
2022-09-16T02:11:21.022Z,0.60
2022-09-16T02:16:39.109Z,0.80
2022-09-16T02:21:45.668Z,0.90
2022-09-16T02:26:54.205Z,1.33
2022-09-16T02:32:00.706Z,1.10
2022-09-16T02:37:08.284Z,1.42
2022-09-16T02:47:17.466Z,1.75
2022-09-16T02:52:52.053Z,0.90
2022-09-16T02:57:53.708Z,1.17
2022-09-16T03:02:55.324Z,1.00
2022-09-16T03:07:57.694Z,1.10
2022-09-16T03:13:11.069Z,0.98
2022-09-16T03:18:37.130Z,0.80
2022-09-16T03:24:00.758Z,1.27
2022-09-16T03:29:08.527Z,1.10
2022-09-16T03:34:20.616Z,1.23
2022-09-16T03:39:22.632Z,1.30
2022-09-16T03:44:34.538Z,1.00
2022-09-16T03:49:36.888Z,0.80
2022-09-16T03:54:38.633Z,1.13
2022-09-16T03:59:41.162Z,1.63
2022-09-16T04:04:42.995Z,1.05
2022-09-16T04:09:44.430Z,1.20
2022-09-16T04:14:45.881Z,1.10
2022-09-16T04:19:47.335Z,0.88
2022-09-16T04:24:48.783Z,1.17
2022-09-16T04:29:50.296Z,0.77
2022-09-16T04:34:51.805Z,1.67
2022-09-16T04:39:53.399Z,1.33
2022-09-16T04:44:54.912Z,1.15
2022-09-16T04:49:56.363Z,1.42
2022-09-16T04:54:58.554Z,1.67
2022-09-16T05:00:00.012Z,1.95
2022-09-16T05:05:01.616Z,1.83
2022-09-16T05:10:03.510Z,1.20
2022-09-16T05:15:05.640Z,1.10
2022-09-16T05:20:07.438Z,1.63
2022-09-16T05:25:09.326Z,0.93
2022-09-16T05:30:11.427Z,1.52
2022-09-16T05:35:13.259Z,3.17
2022-09-16T05:40:14.844Z,1.40
2022-09-16T05:45:20.095Z,2.25
2022-09-16T05:50:24.753Z,2.08
2022-09-16T05:55:26.894Z,1.70
2022-09-16T06:00:28.330Z,2.17
2022-09-16T06:05:29.864Z,2.00
2022-09-16T06:10:31.423Z,1.42
2022-09-16T06:15:34.144Z,1.50
2022-09-16T06:20:36.691Z,1.55
2022-09-16T06:25:38.169Z,2.55
2022-09-16T06:30:39.706Z,1.48
2022-09-16T06:35:41.203Z,1.30
2022-09-16T06:40:42.977Z,1.30
2022-09-16T06:45:44.457Z,1.48
2022-09-16T06:50:46.147Z,1.20
2022-09-16T06:55:47.597Z,1.33
2022-09-16T07:00:50.400Z,1.33
2022-09-16T07:06:00.307Z,1.50
2022-09-16T07:11:03.262Z,1.77
2022-09-16T07:16:14.710Z,1.55
2022-09-16T07:21:18.411Z,2.15
2022-09-16T07:26:22.138Z,1.77
2022-09-16T07:31:26.950Z,1.17
2022-09-16T07:36:30.816Z,1.88
2022-09-16T07:41:37.576Z,1.13
2022-09-16T07:46:39.259Z,1.37
2022-09-16T07:51:41.361Z,1.05
2022-09-16T07:56:44.132Z,1.25
2022-09-16T08:01:46.274Z,1.05
2022-09-16T08:06:48.454Z,1.33
2022-09-16T08:11:50.192Z,1.50
2022-09-16T08:16:51.793Z,1.52
2022-09-16T08:21:53.381Z,1.38
2022-09-16T08:32:01.478Z,1.02
2022-09-16T08:37:02.989Z,1.15
2022-09-16T08:42:27.698Z,1.10
2022-09-16T08:48:08.099Z,1.20
2022-09-16T08:53:22.060Z,1.73
2022-09-16T08:58:27.103Z,1.60
2022-09-16T09:03:41.077Z,1.45
2022-09-16T09:08:57.431Z,1.60
2022-09-16T09:14:34.449Z,1.73
2022-09-16T09:20:05.366Z,1.73
2022-09-16T09:25:06.756Z,1.40
2022-09-16T09:30:21.846Z,1.90
2022-09-16T09:35:50.885Z,2.25
2022-09-16T09:40:58.651Z,1.80
2022-09-16T09:46:09.896Z,2.40
2022-09-16T09:51:37.253Z,3.35
2022-09-16T09:56:44.174Z,2.00
2022-09-16T10:01:45.812Z,1.95
2022-09-16T10:06:49.492Z,1.83
2022-09-16T10:11:55.470Z,2.28
2022-09-16T10:17:00.748Z,1.90
2022-09-16T10:22:11.563Z,2.30
2022-09-16T10:27:25.460Z,2.10
2022-09-16T10:32:26.994Z,1.55
2022-09-16T10:37:28.511Z,1.23
2022-09-16T10:42:30.451Z,1.45
2022-09-16T10:47:33.950Z,1.52
2022-09-16T10:52:44.659Z,1.70
2022-09-16T10:57:46.683Z,2.13
2022-09-16T11:03:06.761Z,1.42
2022-09-16T11:08:30.042Z,1.70
2022-09-16T11:13:49.690Z,1.85
2022-09-16T11:18:56.163Z,1.90
2022-09-16T11:24:15.926Z,2.33
2022-09-16T11:29:29.389Z,2.20
2022-09-16T11:34:40.131Z,2.63
2022-09-16T11:39:50.572Z,1.50
2022-09-16T11:45:23.601Z,1.52
2022-09-16T11:50:41.500Z,2.00
2022-09-16T11:56:01.348Z,2.28
2022-09-16T12:01:19.553Z,1.73
2022-09-16T12:06:25.132Z,1.85
2022-09-16T12:11:33.445Z,1.75
2022-09-16T12:16:41.814Z,2.40
2022-09-16T12:21:49.235Z,1.25
2022-09-16T12:27:34.024Z,1.83
2022-09-16T12:32:50.697Z,2.00
2022-09-16T12:37:54.260Z,1.27
2022-09-16T12:43:17.363Z,1.92
2022-09-16T12:48:51.296Z,1.83
2022-09-16T12:54:00.556Z,1.98
2022-09-16T12:59:16.873Z,1.48
2022-09-16T13:04:41.255Z,1.10
2022-09-16T13:09:43.244Z,2.40
2022-09-16T13:14:51.424Z,0.85
2022-09-16T13:19:55.119Z,0.80
2022-09-16T13:25:19.706Z,1.27
2022-09-16T13:30:27.054Z,1.70
2022-09-16T13:40:32.893Z,2.10
2022-09-16T13:45:42.596Z,1.42
2022-09-16T13:50:51.862Z,1.83
2022-09-16T13:56:02.346Z,2.25
2022-09-16T14:01:27.926Z,2.40
2022-09-16T14:07:22.900Z,2.80
2022-09-16T14:12:45.836Z,3.28
2022-09-16T14:17:51.809Z,2.08
2022-09-16T14:23:19.911Z,2.13
2022-09-16T14:28:27.519Z,2.70
2022-09-16T14:33:32.344Z,1.92
2022-09-16T14:38:47.756Z,2.20
2022-09-16T14:43:49.594Z,1.70
2022-09-16T14:48:51.085Z,2.17
2022-09-16T14:54:13.892Z,2.90
2022-09-16T14:59:15.671Z,3.25
2022-09-16T15:04:25.889Z,2.70
2022-09-16T15:09:40.299Z,2.47
2022-09-16T15:14:41.834Z,1.95
2022-09-16T15:19:56.687Z,2.85
2022-09-16T15:24:59.491Z,2.63
2022-09-16T15:30:05.309Z,2.03
2022-09-16T15:35:27.145Z,2.67
2022-09-16T15:40:28.657Z,2.35
2022-09-16T15:45:30.252Z,3.60
2022-09-16T15:50:41.014Z,2.47
2022-09-16T15:55:59.484Z,2.25
2022-09-16T16:01:05.759Z,2.67
2022-09-16T16:06:07.291Z,2.45
2022-09-16T16:11:11.330Z,2.78
2022-09-16T16:16:15.127Z,3.53
2022-09-16T16:21:17.374Z,2.55
2022-09-16T16:26:19.384Z,2.47
2022-09-16T16:31:21.045Z,2.70
2022-09-16T16:36:22.619Z,2.90
2022-09-16T16:41:24.857Z,2.63
2022-09-16T16:46:27.768Z,2.88
2022-09-16T16:51:29.260Z,2.40
2022-09-16T16:56:30.794Z,3.20
2022-09-16T17:01:33.613Z,3.20
2022-09-16T17:06:36.767Z,2.95
2022-09-16T17:11:52.481Z,3.03
2022-09-16T17:16:55.117Z,2.83
2022-09-16T17:21:57.724Z,3.13
2022-09-16T17:26:59.901Z,1.95
2022-09-16T17:32:02.924Z,2.22
2022-09-16T17:37:08.252Z,2.63
2022-09-16T17:42:09.711Z,2.10
2022-09-16T17:47:11.229Z,1.60
2022-09-16T17:52:12.812Z,1.23
2022-09-16T17:57:14.262Z,1.35
2022-09-16T18:02:15.899Z,1.35
2022-09-16T18:07:18.010Z,1.63
2022-09-16T18:12:19.516Z,1.38
2022-09-16T18:17:21.043Z,0.80
2022-09-16T18:22:22.527Z,1.02
2022-09-16T18:27:25.043Z,3.53
2022-09-16T18:32:26.496Z,2.30
2022-09-16T18:37:28.729Z,2.83
2022-09-16T18:42:30.273Z,2.10
2022-09-16T18:47:31.721Z,1.80
2022-09-16T18:52:33.177Z,2.47
2022-09-16T18:57:34.619Z,1.60
2022-09-16T19:02:37.359Z,2.40
2022-09-16T19:07:38.896Z,2.08
2022-09-16T19:12:40.358Z,2.92
2022-09-16T19:17:41.858Z,3.83
2022-09-16T19:22:43.737Z,3.08
2022-09-16T19:27:45.176Z,2.97
2022-09-16T19:32:46.775Z,2.58
2022-09-16T19:37:48.253Z,2.83
2022-09-16T19:42:49.807Z,2.80
2022-09-16T19:47:51.332Z,2.38
2022-09-16T19:52:52.855Z,3.40
2022-09-16T19:57:54.379Z,3.15
2022-09-16T20:02:55.953Z,2.80
2022-09-16T20:07:57.567Z,4.05
2022-09-16T20:12:59.593Z,3.40
2022-09-16T20:18:01.103Z,4.18
2022-09-16T20:23:02.613Z,3.95
2022-09-16T20:28:04.068Z,3.65
2022-09-16T20:33:05.734Z,2.92
2022-09-16T20:38:07.521Z,2.80
2022-09-16T20:43:08.986Z,3.60
2022-09-16T20:48:10.802Z,3.60
2022-09-16T20:53:12.286Z,3.55
2022-09-16T20:58:13.753Z,3.28
2022-09-16T21:03:15.236Z,3.05
2022-09-16T21:08:16.685Z,2.80
2022-09-16T21:13:18.154Z,2.97
2022-09-16T21:18:19.620Z,3.42
2022-09-16T21:23:21.503Z,3.70
2022-09-16T21:28:23.383Z,3.80
2022-09-16T21:33:26.047Z,3.25
2022-09-16T21:38:28.570Z,3.83
2022-09-16T21:43:33.438Z,2.80
2022-09-16T21:48:34.878Z,3.08
2022-09-16T21:53:37.312Z,3.58
2022-09-16T21:58:38.877Z,3.60
2022-09-16T22:03:42.177Z,3.08
2022-09-16T22:08:48.615Z,3.13
2022-09-16T22:13:51.244Z,2.87
2022-09-16T22:19:01.611Z,3.80
2022-09-16T22:24:04.271Z,3.47
2022-09-16T22:29:06.441Z,3.22
2022-09-16T22:34:08.329Z,3.83
2022-09-16T22:39:14.899Z,3.47
2022-09-16T22:44:16.384Z,3.10
2022-09-16T22:49:17.887Z,2.97
2022-09-16T22:54:19.340Z,2.25
2022-09-16T22:59:20.933Z,2.20
2022-09-16T23:04:22.725Z,2.53
2022-09-16T23:09:24.313Z,1.83
2022-09-16T23:14:26.272Z,2.05
2022-09-16T23:19:27.864Z,2.42
2022-09-16T23:24:29.355Z,2.17
2022-09-16T23:29:30.827Z,2.80
2022-09-16T23:34:32.495Z,2.10
2022-09-16T23:39:34.070Z,1.88
2022-09-16T23:44:35.558Z,2.10
2022-09-16T23:49:37.010Z,2.17
2022-09-16T23:54:38.634Z,1.70
2022-09-16T23:59:40.077Z,1.40
